Time;durP1;ratioP1;P1;durP2;ratioP2;P2;SDS_P1;SDS_P2;PMS_P1;PMS_P2;Temp;Humidity;BMP_temperature;BMP_pressure;BME280_temperature;BME280_humidity;BME280_pressure;Samples;Min_cycle;Max_cycle;Signal;HPM_P1;HPM_P2
2021/08/28 00:00:21;;;;;;;;;;;;;;;16.81;96.62;99819.52;1749633;81;21191;-78
2021/08/28 00:02:47;;;;;;;;;;;;;;;16.74;97.00;99817.36;1750137;80;20595;-78
2021/08/28 00:05:12;;;;;;;;;;;;;;;16.67;97.04;99819.19;1750800;80;20114;-78
2021/08/28 00:07:38;;;;;;;;;;;;;;;16.65;97.64;99825.25;1749430;80;21309;-79
2021/08/28 00:10:07;;;;;;;;;;;;;;;16.63;97.38;99819.31;1743327;81;20268;-78
2021/08/28 00:12:32;;;;;;;;;;;;;;;16.62;97.47;99822.98;1749728;81;20590;-78
2021/08/28 00:14:59;;;;;;;;;;;;;;;16.62;97.69;99822.98;1730066;82;20248;-77
2021/08/28 00:17:32;;;;;;;;;;;;;;;16.59;97.42;99816.73;1757152;80;20211;-77
2021/08/28 00:19:54;;;;;;;;;;;;;;;16.58;97.46;99813.75;1756022;80;20461;-77
2021/08/28 00:22:19;;;;;;;;;;;;;;;16.58;97.45;99820.41;1776078;79;20187;-78
2021/08/28 00:24:45;;;;;;;;;;;;;;;16.54;97.40;99820.01;1774703;80;21235;-78
2021/08/28 00:27:11;;;;;;;;;;;;;;;16.45;97.25;99815.41;1765826;81;20113;-78
2021/08/28 00:29:38;;;;;;;;;;;;;;;16.21;98.25;99816.78;1763801;79;20194;-78
2021/08/28 00:32:04;;;;;;;;;;;;;;;16.04;99.05;99814.98;1764789;81;20118;-78
2021/08/28 00:34:30;;;;;;;;;;;;;;;15.86;100.00;99818.19;1767172;79;20212;-78
2021/08/28 00:36:55;;;;;;;;;;;;;;;15.90;100.00;99807.98;1765437;81;20130;-78
2021/08/28 00:39:21;;;;;;;;;;;;;;;15.87;100.00;99811.04;1762927;80;20133;-78
2021/08/28 00:41:47;;;;;;;;;;;;;;;15.83;100.00;99804.46;1767262;79;20474;-78
2021/08/28 00:44:16;;;;;;;;;;;;;;;15.83;100.00;99807.12;1766992;79;21163;-79
2021/08/28 00:46:41;;;;;;;;;;;;;;;15.83;100.00;99800.47;1766362;81;20455;-78
2021/08/28 00:49:09;;;;;;;;;;;;;;;15.79;100.00;99810.70;1766092;81;20511;-78
2021/08/28 00:51:36;;;;;;;;;;;;;;;15.82;100.00;99805.47;1768290;79;20156;-78
2021/08/28 00:54:02;;;;;;;;;;;;;;;15.71;100.00;99806.86;1741644;81;20176;-80
2021/08/28 00:56:28;;;;;;;;;;;;;;;15.75;100.00;99806.75;1763659;80;21945;-81
2021/08/28 00:58:56;;;;;;;;;;;;;;;15.74;100.00;99814.45;1766273;79;20166;-80
2021/08/28 01:01:22;;;;;;;;;;;;;;;15.72;100.00;99819.97;1767117;79;20187;-80
2021/08/28 01:03:50;;;;;;;;;;;;;;;15.69;100.00;99827.51;1766307;81;20198;-81
2021/08/28 01:06:41;;;;;;;;;;;;;;;15.68;100.00;99829.36;1765633;81;20448;-82
2021/08/28 01:09:10;;;;;;;;;;;;;;;15.62;100.00;99829.62;1740028;81;20833;-81
2021/08/28 01:11:55;;;;;;;;;;;;;;;15.66;100.00;99834.07;1764363;79;20201;-82
2021/08/28 01:14:24;;;;;;;;;;;;;;;15.64;100.00;99834.75;1766240;79;20137;-82
2021/08/28 01:16:51;;;;;;;;;;;;;;;15.46;100.00;99834.45;1767805;81;20576;-81
2021/08/28 01:19:21;;;;;;;;;;;;;;;15.30;100.00;99839.06;1744906;80;20555;-82
2021/08/28 01:21:46;;;;;;;;;;;;;;;15.25;100.00;99840.97;1764810;80;21358;-81
2021/08/28 01:24:14;;;;;;;;;;;;;;;15.15;100.00;99834.34;1735941;80;20197;-81
2021/08/28 01:27:11;;;;;;;;;;;;;;;15.17;100.00;99833.67;1764926;79;20178;-82
2021/08/28 01:29:36;;;;;;;;;;;;;;;15.22;100.00;99837.89;1730572;81;20216;-81
2021/08/28 01:32:02;;;;;;;;;;;;;;;15.21;100.00;99834.41;1756327;80;20147;-81
2021/08/28 01:34:28;;;;;;;;;;;;;;;15.14;100.00;99837.53;1769878;79;21013;-80
2021/08/28 01:36:54;;;;;;;;;;;;;;;15.22;100.00;99837.89;1766730;80;20302;-81
2021/08/28 01:39:21;;;;;;;;;;;;;;;15.16;100.00;99841.32;1763252;80;20244;-81
2021/08/28 01:41:52;;;;;;;;;;;;;;;15.10;100.00;99836.78;1760934;80;20290;-80
2021/08/28 01:44:17;;;;;;;;;;;;;;;15.06;100.00;99835.02;1763326;79;20133;-82
2021/08/28 01:46:43;;;;;;;;;;;;;;;15.06;100.00;99833.69;1770755;80;21091;-80
2021/08/28 01:49:09;;;;;;;;;;;;;;;15.01;100.00;99835.60;1763089;79;21083;-80
2021/08/28 01:51:34;;;;;;;;;;;;;;;14.93;100.00;99841.06;1769082;79;20144;-81
2021/08/28 01:54:00;;;;;;;;;;;;;;;14.86;100.00;99840.18;1774283;79;20701;-80
2021/08/28 01:56:26;;;;;;;;;;;;;;;14.84;100.00;99840.89;1761677;79;20259;-81
2021/08/28 01:58:51;;;;;;;;;;;;;;;14.86;100.00;99846.83;1731750;80;21132;-81
2021/08/28 02:01:17;;;;;;;;;;;;;;;14.82;100.00;99844.22;1767501;80;20139;-81
2021/08/28 02:03:44;;;;;;;;;;;;;;;14.85;100.00;99843.84;1768394;79;20737;-81
2021/08/28 02:06:25;;;;;;;;;;;;;;;14.81;100.00;99845.26;1763454;80;20214;-81
2021/08/28 02:08:55;;;;;;;;;;;;;;;14.76;100.00;99841.00;1768258;80;20176;-81
2021/08/28 02:11:36;;;;;;;;;;;;;;;14.74;100.00;99837.72;1766644;79;21926;-80
2021/08/28 02:14:08;;;;;;;;;;;;;;;14.74;100.00;99834.55;1765044;80;20574;-81
2021/08/28 02:16:33;;;;;;;;;;;;;;;14.64;100.00;99838.05;1766077;79;20681;-81
2021/08/28 02:19:09;;;;;;;;;;;;;;;14.49;100.00;99833.57;1765356;80;20123;-81
2021/08/28 02:21:34;;;;;;;;;;;;;;;14.48;100.00;99836.41;1751735;80;20508;-81
2021/08/28 02:24:03;;;;;;;;;;;;;;;14.47;100.00;99826.82;1778432;80;21107;-81
2021/08/28 02:26:40;;;;;;;;;;;;;;;14.52;100.00;99829.72;1742954;81;20551;-81
2021/08/28 02:29:10;;;;;;;;;;;;;;;14.50;100.00;99821.13;1730428;81;20220;-82
2021/08/28 02:31:42;;;;;;;;;;;;;;;14.48;100.00;99821.31;1725789;81;20170;-82
2021/08/28 02:34:07;;;;;;;;;;;;;;;14.46;100.00;99819.84;1739153;80;20225;-81
2021/08/28 02:36:33;;;;;;;;;;;;;;;14.50;100.00;99822.45;1776371;80;21157;-81
2021/08/28 02:38:58;;;;;;;;;;;;;;;14.50;100.00;99820.61;1749150;80;20127;-81
2021/08/28 02:41:24;;;;;;;;;;;;;;;14.48;100.00;99823.13;1745642;81;20190;-81
2021/08/28 02:43:51;;;;;;;;;;;;;;;14.50;100.00;99826.44;1725010;81;20149;-81
2021/08/28 02:46:17;;;;;;;;;;;;;;;14.47;100.00;99830.80;1741339;81;20138;-80
2021/08/28 02:48:43;;;;;;;;;;;;;;;14.45;100.00;99827.49;1765801;80;21138;-81
2021/08/28 02:51:10;;;;;;;;;;;;;;;14.38;100.00;99819.98;1758316;80;20285;-80
2021/08/28 02:53:37;;;;;;;;;;;;;;;14.31;100.00;99819.89;1755220;80;20164;-79
2021/08/28 02:56:03;;;;;;;;;;;;;;;14.33;100.00;99825.34;1762414;80;20209;-82
2021/08/28 02:58:29;;;;;;;;;;;;;;;14.33;100.00;99812.06;1766155;80;20181;-81
2021/08/28 03:00:55;;;;;;;;;;;;;;;14.28;100.00;99813.14;1733995;80;21151;-81
2021/08/28 03:03:21;;;;;;;;;;;;;;;14.21;100.00;99810.11;1769796;80;20156;-81
2021/08/28 03:05:48;;;;;;;;;;;;;;;14.21;100.00;99814.90;1764900;80;20205;-82
2021/08/28 03:08:15;;;;;;;;;;;;;;;14.25;100.00;99805.55;1766825;80;20198;-82
2021/08/28 03:10:44;;;;;;;;;;;;;;;14.24;100.00;99814.52;1766548;80;20365;-82
2021/08/28 03:13:09;;;;;;;;;;;;;;;14.24;100.00;99813.20;1765957;80;21946;-82
2021/08/28 03:15:35;;;;;;;;;;;;;;;14.19;100.00;99816.93;1771174;80;20194;-81
2021/08/28 03:18:01;;;;;;;;;;;;;;;14.17;100.00;99813.65;1743897;80;20261;-81
2021/08/28 03:20:28;;;;;;;;;;;;;;;14.18;100.00;99807.31;1751199;80;20597;-81
2021/08/28 03:22:53;;;;;;;;;;;;;;;14.19;100.00;99812.95;1751906;80;20511;-81
2021/08/28 03:25:19;;;;;;;;;;;;;;;14.22;100.00;99818.40;1752781;80;21152;-81
2021/08/28 03:27:44;;;;;;;;;;;;;;;14.25;100.00;99818.83;1751448;81;20281;-81
2021/08/28 03:30:12;;;;;;;;;;;;;;;14.26;100.00;99815.18;1720209;80;20123;-82
2021/08/28 03:32:40;;;;;;;;;;;;;;;14.25;100.00;99824.15;1747029;80;20198;-82
2021/08/28 03:35:06;;;;;;;;;;;;;;;14.31;100.00;99819.41;1750824;81;20222;-82
2021/08/28 03:37:32;;;;;;;;;;;;;;;14.24;100.00;99814.52;1715291;81;21183;-82
2021/08/28 03:39:58;;;;;;;;;;;;;;;14.27;100.00;99815.48;1749370;81;20138;-81
2021/08/28 03:42:23;;;;;;;;;;;;;;;14.21;100.00;99811.43;1749032;80;20146;-81
2021/08/28 03:44:49;;;;;;;;;;;;;;;14.24;100.00;99806.56;1753117;80;20130;-81
2021/08/28 03:47:15;;;;;;;;;;;;;;;14.16;100.00;99817.30;1743894;81;20218;-82
2021/08/28 03:49:41;;;;;;;;;;;;;;;14.13;100.00;99813.70;1743884;81;21005;-81
2021/08/28 03:52:07;;;;;;;;;;;;;;;14.11;100.00;99813.88;1748574;80;20290;-81
2021/08/28 03:54:33;;;;;;;;;;;;;;;14.11;100.00;99817.05;1745271;81;20447;-82
2021/08/28 03:56:59;;;;;;;;;;;;;;;14.14;100.00;99815.36;1748153;81;20160;-82
2021/08/28 03:59:25;;;;;;;;;;;;;;;14.09;100.00;99819.90;1746073;80;20141;-82
2021/08/28 04:01:52;;;;;;;;;;;;;;;14.09;100.00;99826.53;1745522;81;21007;-82
2021/08/28 04:04:17;;;;;;;;;;;;;;;14.07;100.00;99826.39;1751672;81;20158;-81
2021/08/28 04:06:43;;;;;;;;;;;;;;;13.97;100.00;99824.05;1719712;81;20183;-81
2021/08/28 04:09:09;;;;;;;;;;;;;;;13.98;100.00;99829.17;1750355;81;20124;-81
2021/08/28 04:11:34;;;;;;;;;;;;;;;13.93;100.00;99828.88;1748879;80;20277;-84
2021/08/28 04:14:00;;;;;;;;;;;;;;;13.91;100.00;99823.46;1749406;80;21079;-82
2021/08/28 04:16:25;;;;;;;;;;;;;;;13.95;100.00;99831.35;1747720;80;20185;-82
2021/08/28 04:18:51;;;;;;;;;;;;;;;13.98;100.00;99830.50;1720635;81;20195;-82
2021/08/28 04:21:16;;;;;;;;;;;;;;;14.03;100.00;99827.77;1742907;81;20458;-82
2021/08/28 04:23:42;;;;;;;;;;;;;;;14.02;100.00;99834.11;1718198;80;20173;-82
2021/08/28 04:26:08;;;;;;;;;;;;;;;14.04;100.00;99838.71;1752412;80;21092;-83
2021/08/28 04:28:34;;;;;;;;;;;;;;;14.03;100.00;99843.21;1746219;81;20459;-82
2021/08/28 04:31:00;;;;;;;;;;;;;;;14.07;100.00;99847.63;1744650;80;20209;-84
2021/08/28 04:33:26;;;;;;;;;;;;;;;14.05;100.00;99850.99;1751352;81;20721;-83
2021/08/28 04:35:51;;;;;;;;;;;;;;;14.07;100.00;99845.80;1773487;79;20196;-83
2021/08/28 04:38:17;;;;;;;;;;;;;;;14.06;100.00;99849.96;1750079;81;21063;-84
2021/08/28 04:40:48;;;;;;;;;;;;;;;14.07;100.00;99858.25;1722264;80;20981;-83
2021/08/28 04:43:14;;;;;;;;;;;;;;;14.07;100.00;99863.56;1751714;80;20199;-83
2021/08/28 04:45:39;;;;;;;;;;;;;;;14.12;100.00;99858.52;1747843;81;20524;-84
2021/08/28 04:48:05;;;;;;;;;;;;;;;14.08;100.00;99860.73;1750321;81;20230;-83
2021/08/28 04:50:32;;;;;;;;;;;;;;;14.12;100.00;99861.16;1752390;80;21154;-83
2021/08/28 04:52:58;;;;;;;;;;;;;;;14.16;100.00;99862.45;1748057;80;20112;-83
2021/08/28 04:55:24;;;;;;;;;;;;;;;14.18;100.00;99863.08;1752245;80;20176;-83
2021/08/28 04:57:50;;;;;;;;;;;;;;;14.15;100.00;99866.10;1722977;81;20643;-83
2021/08/28 05:00:16;;;;;;;;;;;;;;;14.21;100.00;99854.73;1744735;80;20148;-83
2021/08/28 05:02:42;;;;;;;;;;;;;;;14.25;100.00;99865.83;1749783;81;21138;-83
2021/08/28 05:05:08;;;;;;;;;;;;;;;14.23;100.00;99862.03;1751777;81;20335;-83
2021/08/28 05:07:34;;;;;;;;;;;;;;;14.29;100.00;99859.95;1744741;80;20208;-83
2021/08/28 05:09:59;;;;;;;;;;;;;;;14.32;100.00;99862.72;1750090;81;20436;-82
2021/08/28 05:12:25;;;;;;;;;;;;;;;14.24;100.00;99861.52;1755323;80;20188;-83
2021/08/28 05:14:52;;;;;;;;;;;;;;;14.29;100.00;99863.94;1754442;81;21065;-83
2021/08/28 05:17:18;;;;;;;;;;;;;;;14.28;100.00;99862.28;1755704;80;20179;-84
2021/08/28 05:19:44;;;;;;;;;;;;;;;14.30;100.00;99861.58;1745665;81;20189;-83
2021/08/28 05:22:09;;;;;;;;;;;;;;;14.36;100.00;99861.34;1755652;80;20144;-83
2021/08/28 05:24:37;;;;;;;;;;;;;;;14.34;100.00;99862.86;1758577;80;20132;-83
2021/08/28 05:27:03;;;;;;;;;;;;;;;14.29;100.00;99863.94;1751113;80;20154;-83
2021/08/28 05:29:28;;;;;;;;;;;;;;;14.31;100.00;99865.89;1748136;81;20211;-83
2021/08/28 05:31:56;;;;;;;;;;;;;;;14.36;100.00;99860.02;1779849;79;20483;-80
2021/08/28 05:34:23;;;;;;;;;;;;;;;14.36;100.00;99867.47;1755916;80;20225;-83
2021/08/28 05:36:49;;;;;;;;;;;;;;;14.41;100.00;99864.77;1775778;79;20179;-83
2021/08/28 05:39:14;;;;;;;;;;;;;;;14.38;100.00;99865.14;1779149;79;21112;-83
2021/08/28 05:41:40;;;;;;;;;;;;;;;14.42;100.00;99865.91;1780535;79;20167;-83
2021/08/28 05:44:05;;;;;;;;;;;;;;;14.43;100.00;99865.39;1753374;80;20159;-83
2021/08/28 05:46:31;;;;;;;;;;;;;;;14.43;100.00;99865.39;1780535;79;20184;-83
2021/08/28 05:48:57;;;;;;;;;;;;;;;14.44;100.00;99865.72;1779731;79;20137;-83
2021/08/28 05:51:23;;;;;;;;;;;;;;;14.46;100.00;99869.00;1783963;79;21074;-83
2021/08/28 05:53:53;;;;;;;;;;;;;;;14.56;100.00;99860.23;1776254;80;20494;-83
2021/08/28 05:56:19;;;;;;;;;;;;;;;14.60;100.00;99866.82;1747472;80;20151;-83
2021/08/28 05:58:44;;;;;;;;;;;;;;;14.59;100.00;99867.82;1719485;80;20200;-84
2021/08/28 06:01:10;;;;;;;;;;;;;;;14.60;100.00;99869.48;1740977;80;20140;-84
2021/08/28 06:03:36;;;;;;;;;;;;;;;14.63;100.00;99863.78;1743705;81;21047;-84
2021/08/28 06:06:01;;;;;;;;;;;;;;;14.69;100.00;99867.02;1735878;80;20135;-84
2021/08/28 06:08:27;;;;;;;;;;;;;;;14.67;100.00;99867.72;1765149;80;20653;-84
2021/08/28 06:10:52;;;;;;;;;;;;;;;14.59;100.00;99866.48;1757087;79;20146;-84
2021/08/28 06:13:19;;;;;;;;;;;;;;;14.67;100.00;99870.38;1764302;79;20452;-84
2021/08/28 06:15:45;;;;;;;;;;;;;;;14.56;100.00;99884.14;1758014;80;21096;-84
2021/08/28 06:18:11;;;;;;;;;;;;;;;14.64;100.00;99878.73;1761044;79;20495;-83
2021/08/28 06:20:36;;;;;;;;;;;;;;;14.65;100.00;99880.38;1761486;79;20765;-84
2021/08/28 06:23:02;;;;;;;;;;;;;;;14.68;100.00;99882.66;1731638;80;20100;-84
2021/08/28 06:25:27;;;;;;;;;;;;;;;14.76;100.00;99876.88;1758760;80;20110;-82
2021/08/28 06:27:53;;;;;;;;;;;;;;;14.82;100.00;99885.42;1732873;80;20997;-82
2021/08/28 06:30:19;;;;;;;;;;;;;;;14.76;100.00;99886.19;1776106;79;20447;-83
2021/08/28 06:32:44;;;;;;;;;;;;;;;14.78;100.00;99886.84;1777984;80;20150;-83
2021/08/28 06:35:10;;;;;;;;;;;;;;;14.86;100.00;99882.20;1757574;81;20128;-83
2021/08/28 06:37:37;;;;;;;;;;;;;;;14.95;100.00;99884.75;1751299;81;20521;-83
2021/08/28 06:40:04;;;;;;;;;;;;;;;15.04;100.00;99883.08;1752686;80;21166;-83
2021/08/28 06:42:29;;;;;;;;;;;;;;;15.08;100.00;99876.34;1754393;80;20216;-83
2021/08/28 06:44:55;;;;;;;;;;;;;;;15.05;100.00;99878.06;1750191;81;20163;-83
2021/08/28 06:47:22;;;;;;;;;;;;;;;15.13;100.00;99877.09;1752246;80;20866;-83
2021/08/28 06:49:48;;;;;;;;;;;;;;;15.21;100.00;99876.13;1753055;81;20109;-83
2021/08/28 06:52:15;;;;;;;;;;;;;;;15.31;100.00;99877.96;1747209;80;21205;-83
2021/08/28 06:54:41;;;;;;;;;;;;;;;15.33;100.00;99874.59;1755221;81;20518;-83
2021/08/28 06:57:06;;;;;;;;;;;;;;;15.28;100.00;99879.67;1748861;81;20154;-83
2021/08/28 06:59:32;;;;;;;;;;;;;;;15.37;100.00;99873.20;1749722;80;20153;-83
2021/08/28 07:01:57;;;;;;;;;;;;;;;15.48;100.00;99873.69;1748120;80;20128;-83
2021/08/28 07:04:23;;;;;;;;;;;;;;;15.53;100.00;99876.57;1743082;80;21018;-83
2021/08/28 07:06:48;;;;;;;;;;;;;;;15.51;100.00;99873.30;1747117;81;20173;-83
2021/08/28 07:09:14;;;;;;;;;;;;;;;15.55;100.00;99875.86;1758017;81;20159;-86
2021/08/28 07:11:40;;;;;;;;;;;;;;;15.48;100.00;99871.83;1748690;81;20159;-83
2021/08/28 07:14:06;;;;;;;;;;;;;;;15.44;100.00;99878.06;1747770;80;20217;-86
2021/08/28 07:16:32;;;;;;;;;;;;;;;15.51;100.00;99880.76;1747012;81;21081;-83
2021/08/28 07:18:58;;;;;;;;;;;;;;;15.55;100.00;99870.05;1735944;81;20181;-85
2021/08/28 07:21:24;;;;;;;;;;;;;;;15.59;100.00;99880.59;1752516;80;20271;-82
2021/08/28 07:23:49;;;;;;;;;;;;;;;15.58;100.00;99879.45;1748765;81;20152;-81
2021/08/28 07:26:16;;;;;;;;;;;;;;;15.54;100.00;99879.55;1754219;81;20202;-81
2021/08/28 07:28:41;;;;;;;;;;;;;;;15.60;100.00;99878.25;1755589;81;21108;-81
2021/08/28 07:31:07;;;;;;;;;;;;;;;15.54;100.00;99886.20;1750146;81;20114;-83
2021/08/28 07:33:35;;;;;;;;;;;;;;;15.53;100.00;99876.57;1749973;80;20521;-81
2021/08/28 07:36:00;;;;;;;;;;;;;;;15.53;100.00;99885.37;1747255;81;20521;-81
2021/08/28 07:38:26;;;;;;;;;;;;;;;15.57;100.00;99880.50;1743568;81;20205;-83
2021/08/28 07:40:52;;;;;;;;;;;;;;;15.68;100.00;99882.60;1745659;80;21157;-82
2021/08/28 07:43:17;;;;;;;;;;;;;;;15.74;100.00;99879.16;1745712;81;20183;-82
2021/08/28 07:45:43;;;;;;;;;;;;;;;15.74;100.00;99881.00;1745447;81;20438;-82
2021/08/28 07:48:09;;;;;;;;;;;;;;;15.75;100.00;99883.95;1749168;81;20591;-82
2021/08/28 07:50:35;;;;;;;;;;;;;;;15.79;100.00;99886.06;1724593;81;20142;-84
2021/08/28 07:53:01;;;;;;;;;;;;;;;15.79;100.00;99879.41;1752679;81;21050;-83
2021/08/28 07:55:27;;;;;;;;;;;;;;;15.79;100.00;99884.73;1743279;80;20207;-83
2021/08/28 07:57:53;;;;;;;;;;;;;;;15.88;100.00;99888.06;1743144;81;20176;-82
2021/08/28 08:00:20;;;;;;;;;;;;;;;15.95;100.00;99883.57;1743082;80;20444;-83
2021/08/28 08:02:46;;;;;;;;;;;;;;;15.89;100.00;99876.38;1753616;80;20640;-82
2021/08/28 08:05:11;;;;;;;;;;;;;;;15.98;100.00;99887.69;1749335;81;21148;-82
2021/08/28 08:07:37;;;;;;;;;;;;;;;16.06;100.00;99887.52;1748557;81;20191;-83
2021/08/28 08:10:05;;;;;;;;;;;;;;;16.16;100.00;99881.84;1747400;81;20427;-82
2021/08/28 08:12:33;;;;;;;;;;;;;;;16.18;100.00;99886.97;1743506;80;20348;-83
2021/08/28 08:14:58;;;;;;;;;;;;;;;16.18;100.00;99894.95;1747831;80;20175;-83
2021/08/28 08:17:24;;;;;;;;;;;;;;;16.17;100.00;99883.98;1747241;80;21145;-83
2021/08/28 08:19:50;;;;;;;;;;;;;;;16.21;100.00;99882.57;1753936;80;20455;-83
2021/08/28 08:22:16;;;;;;;;;;;;;;;16.18;100.00;99885.11;1744176;81;20789;-83
2021/08/28 08:24:43;;;;;;;;;;;;;;;16.29;100.00;99874.39;1746807;81;20585;-82
2021/08/28 08:27:08;;;;;;;;;;;;;;;16.39;100.00;99882.84;1730491;79;20208;-82
2021/08/28 08:29:34;;;;;;;;;;;;;;;16.46;100.00;99876.99;1724267;81;21199;-82
2021/08/28 08:32:01;;;;;;;;;;;;;;;16.44;99.86;99884.38;1725919;82;20460;-83
2021/08/28 08:34:26;;;;;;;;;;;;;;;16.45;99.58;99880.70;1723879;81;20202;-83
2021/08/28 08:36:52;;;;;;;;;;;;;;;16.50;99.01;99878.24;1724079;81;20517;-83
2021/08/28 08:39:17;;;;;;;;;;;;;;;16.48;98.54;99880.30;1723575;81;20168;-82
2021/08/28 08:41:46;;;;;;;;;;;;;;;16.58;97.52;99882.56;1725283;82;21059;-83
2021/08/28 08:44:12;;;;;;;;;;;;;;;16.60;98.26;99891.17;1723937;83;20196;-83
2021/08/28 08:46:38;;;;;;;;;;;;;;;16.68;97.61;99884.83;1724604;81;20106;-83
2021/08/28 08:49:04;;;;;;;;;;;;;;;16.75;97.10;99883.01;1720047;82;20224;-83
2021/08/28 08:51:30;;;;;;;;;;;;;;;16.81;95.94;99882.19;1723819;83;20473;-83
2021/08/28 08:53:58;;;;;;;;;;;;;;;16.80;95.68;99891.73;1723599;83;20965;-83
2021/08/28 08:56:23;;;;;;;;;;;;;;;16.90;95.61;99884.69;1725877;82;20147;-83
2021/08/28 08:58:53;;;;;;;;;;;;;;;17.00;94.92;99883.78;1725597;83;20140;-83
2021/08/28 09:01:19;;;;;;;;;;;;;;;17.00;94.17;99893.11;1722753;83;20196;-84
2021/08/28 09:03:45;;;;;;;;;;;;;;;16.94;91.84;99894.74;1721297;81;20452;-84
2021/08/28 09:06:10;;;;;;;;;;;;;;;16.88;91.77;99900.08;1724206;81;21102;-84
2021/08/28 09:08:36;;;;;;;;;;;;;;;16.80;92.91;99900.54;1720737;81;20566;-83
2021/08/28 09:11:01;;;;;;;;;;;;;;;16.81;93.05;99900.86;1713000;81;20136;-85
2021/08/28 09:13:28;;;;;;;;;;;;;;;16.75;93.88;99900.34;1728514;82;20146;-82
2021/08/28 09:15:57;;;;;;;;;;;;;;;16.97;92.86;99901.52;1730692;81;20321;-84
2021/08/28 09:18:23;;;;;;;;;;;;;;;17.10;91.58;99900.70;1727578;81;22554;-83
2021/08/28 09:20:51;;;;;;;;;;;;;;;17.19;90.91;99898.95;1728210;81;20319;-83
2021/08/28 09:23:18;;;;;;;;;;;;;;;17.11;89.97;99904.50;1728802;81;20318;-83
2021/08/28 09:25:48;;;;;;;;;;;;;;;17.17;89.92;99898.87;1731795;81;20163;-83
2021/08/28 09:28:13;;;;;;;;;;;;;;;16.92;90.29;99901.30;1752716;80;20561;-84
2021/08/28 09:30:43;;;;;;;;;;;;;;;16.90;90.90;99899.36;1747851;81;21177;-83
2021/08/28 09:33:15;;;;;;;;;;;;;;;16.94;91.00;99911.27;1746153;80;20266;-82
2021/08/28 09:35:42;;;;;;;;;;;;;;;16.95;90.23;99920.89;1743657;80;20165;-84
2021/08/28 09:38:10;;;;;;;;;;;;;;;16.92;89.62;99917.30;1723432;80;20745;-84
2021/08/28 09:40:38;;;;;;;;;;;;;;;17.04;89.41;99915.67;1747748;80;20156;-84
2021/08/28 09:43:06;;;;;;;;;;;;;;;17.15;89.09;99919.08;1745016;80;21110;-82
2021/08/28 09:45:31;;;;;;;;;;;;;;;17.06;88.64;99924.31;1741523;81;20194;-84
2021/08/28 09:47:57;;;;;;;;;;;;;;;17.03;87.50;99916.72;1749806;80;20179;-85
2021/08/28 09:50:31;;;;;;;;;;;;;;;17.11;87.55;99915.70;1745807;80;20206;-85
2021/08/28 09:53:02;;;;;;;;;;;;;;;17.27;87.15;99911.78;1741975;80;20226;-84
2021/08/28 09:55:29;;;;;;;;;;;;;;;17.34;85.06;99909.91;1754043;80;21070;-83
2021/08/28 09:57:55;;;;;;;;;;;;;;;17.43;84.40;99907.34;1745118;80;20139;-83
2021/08/28 10:00:21;;;;;;;;;;;;;;;17.54;83.24;99909.41;1741596;80;20471;-85
2021/08/28 10:03:04;;;;;;;;;;;;;;;17.63;83.61;99915.84;1749277;80;20152;-85
2021/08/28 10:05:34;;;;;;;;;;;;;;;17.62;83.85;99922.20;1717425;81;37297;-86
2021/08/28 10:08:01;;;;;;;;;;;;;;;17.48;82.23;99916.91;1744105;81;21113;-86
2021/08/28 10:10:30;;;;;;;;;;;;;;;17.78;81.80;99916.44;1717801;81;20172;-82
2021/08/28 10:12:58;;;;;;;;;;;;;;;17.86;81.03;99917.53;1747698;80;20128;-86
2021/08/28 10:15:23;;;;;;;;;;;;;;;17.79;79.40;99922.59;1742894;81;20196;-84
2021/08/28 10:17:50;;;;;;;;;;;;;;;17.92;79.29;99930.09;1749634;80;20439;-85
2021/08/28 10:20:21;;;;;;;;;;;;;;;17.98;79.70;99916.41;1721915;81;21300;-85
2021/08/28 10:22:49;;;;;;;;;;;;;;;18.00;78.37;99922.88;1745409;80;20150;-85
2021/08/28 10:25:14;;;;;;;;;;;;;;;18.06;77.55;99918.03;1742272;80;20146;-85
2021/08/28 10:27:41;;;;;;;;;;;;;;;18.03;76.50;99916.59;1745790;80;20166;-83
2021/08/28 10:30:08;;;;;;;;;;;;;;;18.05;76.71;99920.39;1748648;81;20471;-86
2021/08/28 10:32:36;;;;;;;;;;;;;;;18.06;77.37;99915.36;1747324;81;21240;-84
2021/08/28 10:35:03;;;;;;;;;;;;;;;18.13;77.47;99918.81;1743619;80;20297;-84
2021/08/28 10:37:28;;;;;;;;;;;;;;;18.12;77.42;99925.20;1715213;80;20511;-83
2021/08/28 10:39:54;;;;;;;;;;;;;;;18.13;77.15;99918.81;1749534;80;20146;-83
2021/08/28 10:42:20;;;;;;;;;;;;;;;18.19;77.26;99917.97;1748284;80;20207;-84
2021/08/28 10:44:51;;;;;;;;;;;;;;;18.29;76.05;99922.35;1748151;80;20622;-82
2021/08/28 10:47:21;;;;;;;;;;;;;;;18.34;75.72;99923.58;1744650;80;20150;-85
2021/08/28 10:49:52;;;;;;;;;;;;;;;18.30;76.33;99924.00;1747188;80;20232;-85
2021/08/28 10:52:20;;;;;;;;;;;;;;;18.32;75.32;99916.27;1749347;80;20441;-83
2021/08/28 10:54:56;;;;;;;;;;;;;;;18.33;75.12;99920.59;1743007;80;20225;-83
2021/08/28 10:57:26;;;;;;;;;;;;;;;18.40;74.82;99920.86;1745896;80;20657;-82
2021/08/28 11:00:01;;;;;;;;;;;;;;;18.38;74.71;99916.75;1744865;80;20160;-85
2021/08/28 11:02:46;;;;;;;;;;;;;;;18.30;74.89;99911.97;1748698;81;20181;-84
2021/08/28 11:05:24;;;;;;;;;;;;;;;18.44;74.20;99920.75;1740222;80;20235;-85
2021/08/28 11:07:49;;;;;;;;;;;;;;;18.44;73.28;99917.23;1746342;80;20601;-84
2021/08/28 11:10:22;;;;;;;;;;;;;;;18.64;73.52;99919.80;1743413;80;21138;-83
2021/08/28 11:13:01;;;;;;;;;;;;;;;18.79;73.17;99919.52;1739171;80;20195;-82
2021/08/28 11:15:37;;;;;;;;;;;;;;;18.79;72.25;99922.20;1743672;80;20152;-83
2021/08/28 11:18:04;;;;;;;;;;;;;;;18.91;71.71;99920.50;1739210;81;20197;-83
2021/08/28 11:20:48;;;;;;;;;;;;;;;18.78;70.96;99936.59;1746536;81;20114;-83
2021/08/28 11:23:17;;;;;;;;;;;;;;;18.73;70.83;99922.53;1744697;81;21983;-79
2021/08/28 11:25:47;;;;;;;;;;;;;;;18.77;70.69;99924.27;1740689;80;20110;-77
2021/08/28 11:28:13;;;;;;;;;;;;;;;18.80;71.44;99913.14;1721073;81;20136;-78
2021/08/28 11:30:49;;;;;;;;;;;;;;;18.81;71.01;99918.25;1726217;81;20170;-78
2021/08/28 11:33:32;;;;;;;;;;;;;;;18.89;71.23;99917.20;1729977;81;20201;-77
2021/08/28 11:36:19;;;;;;;;;;;;;;;18.80;71.04;99916.63;1724690;81;21997;-79
2021/08/28 11:38:54;;;;;;;;;;;;;;;18.75;71.88;99919.64;1726164;81;20585;-78
2021/08/28 11:41:24;;;;;;;;;;;;;;;18.80;72.17;99921.98;1731645;81;20179;-79
2021/08/28 11:43:50;;;;;;;;;;;;;;;18.86;71.62;99915.48;1725541;81;20213;-78
2021/08/28 11:46:17;;;;;;;;;;;;;;;18.92;71.74;99914.09;1729033;81;20184;-79
2021/08/28 11:48:46;;;;;;;;;;;;;;;18.89;71.86;99918.54;1726976;81;21144;-80
2021/08/28 11:51:13;;;;;;;;;;;;;;;18.94;71.94;99929.43;1725749;81;20490;-79
2021/08/28 11:53:41;;;;;;;;;;;;;;;18.92;71.64;99926.13;1718125;81;20491;-80
2021/08/28 11:56:15;;;;;;;;;;;;;;;18.89;70.53;99931.91;1705856;81;20298;-79
2021/08/28 11:59:00;;;;;;;;;;;;;;;18.86;71.03;99928.34;1717192;81;20197;-80
2021/08/28 12:01:32;;;;;;;;;;;;;;;18.92;71.43;99930.67;1732194;81;22003;-80
2021/08/28 12:04:00;;;;;;;;;;;;;;;18.83;70.76;99926.05;1725265;81;20194;-78
2021/08/28 12:06:26;;;;;;;;;;;;;;;18.79;70.63;99926.20;1723037;81;20224;-78
2021/08/28 12:08:52;;;;;;;;;;;;;;;18.84;70.75;99932.56;1727793;81;20473;-78
2021/08/28 12:11:18;;;;;;;;;;;;;;;19.00;70.78;99933.92;1727016;81;20244;-78
2021/08/28 12:13:58;;;;;;;;;;;;;;;19.10;70.68;99923.25;1726357;81;21002;-80
2021/08/28 12:16:25;;;;;;;;;;;;;;;19.30;70.56;99920.41;1716725;81;20177;-79
2021/08/28 12:19:03;;;;;;;;;;;;;;;19.39;70.26;99919.09;1729906;81;20374;-79
2021/08/28 12:21:29;;;;;;;;;;;;;;;19.38;70.49;99918.78;1727110;81;20127;-80
2021/08/28 12:23:55;;;;;;;;;;;;;;;19.38;69.60;99912.90;1728552;81;21075;-78
2021/08/28 12:26:21;;;;;;;;;;;;;;;19.46;69.81;99910.99;1727611;81;22202;-79
2021/08/28 12:28:47;;;;;;;;;;;;;;;19.52;69.45;99910.11;1742907;81;20143;-79
2021/08/28 12:31:15;;;;;;;;;;;;;;;19.65;67.99;99905.94;1746922;80;20154;-83
2021/08/28 12:33:40;;;;;;;;;;;;;;;19.64;67.58;99904.32;1719301;81;20239;-81
2021/08/28 12:36:27;;;;;;;;;;;;;;;19.62;68.01;99905.05;1745184;81;20184;-79
2021/08/28 12:39:06;;;;;;;;;;;;;;;19.64;67.61;99911.02;1747730;81;21086;-81
2021/08/28 12:41:32;;;;;;;;;;;;;;;19.79;68.11;99904.50;1745381;80;20326;-79